Terminal Aerodrome Forecast
Issued by NWS

Home | Current Version | Previous Version | Text Only | Print | Product List | Glossary On
Versions: 1 2 3 4 5 6 7 8 9 10 11 12 13 14 15 16
872
FTUS46 KSTO 071840 AAA
TAFSCK
TAF AMD
KSCK 071840Z 0719/0818 36004KT P6SM SKC
     FM080900 VRB03KT 4SM BR SKC
      TEMPO 0813/0817 2SM BR=

USA.gov is the U.S. government's official web portal to all federal, state and local government web resources and services.